sensor_id;sensor_type;location;lat;lon;timestamp;P1;durP1;ratioP1;P2;durP2;ratioP2
70780;SDS011;59514;48.810;2.134;2023-05-10T11:31:10;6.93;;;3.00;;
70780;SDS011;59514;48.810;2.134;2023-05-10T11:33:45;6.57;;;3.53;;
70780;SDS011;59514;48.810;2.134;2023-05-10T11:36:16;8.13;;;3.78;;
70780;SDS011;59514;48.810;2.134;2023-05-10T11:38:42;5.78;;;3.38;;
70780;SDS011;59514;48.810;2.134;2023-05-10T11:41:08;5.85;;;3.08;;
70780;SDS011;59514;48.810;2.134;2023-05-10T11:43:35;6.50;;;2.78;;
70780;SDS011;59514;48.810;2.134;2023-05-10T11:46:02;5.70;;;2.33;;
70780;SDS011;59514;48.810;2.134;2023-05-10T11:48:29;7.75;;;3.45;;
70780;SDS011;59514;48.810;2.134;2023-05-10T11:50:54;6.85;;;3.28;;
70780;SDS011;59514;48.810;2.134;2023-05-10T11:53:22;6.80;;;2.65;;
70780;SDS011;59514;48.810;2.134;2023-05-10T11:55:47;5.25;;;2.20;;
70780;SDS011;59514;48.810;2.134;2023-05-10T11:58:13;6.25;;;2.63;;
70780;SDS011;59514;48.810;2.134;2023-05-10T12:00:38;6.25;;;2.75;;
70780;SDS011;59514;48.810;2.134;2023-05-10T12:03:04;6.20;;;2.55;;
70780;SDS011;59514;48.810;2.134;2023-05-10T12:05:31;4.10;;;2.38;;
70780;SDS011;59514;48.810;2.134;2023-05-10T12:08:19;5.15;;;2.20;;
70780;SDS011;59514;48.810;2.134;2023-05-10T12:10:46;4.57;;;1.80;;
70780;SDS011;59514;48.810;2.134;2023-05-10T12:13:12;7.70;;;2.53;;
70780;SDS011;59514;48.810;2.134;2023-05-10T12:15:39;4.93;;;2.55;;
70780;SDS011;59514;48.810;2.134;2023-05-10T12:18:04;5.05;;;1.90;;
70780;SDS011;59514;48.810;2.134;2023-05-10T12:20:30;4.60;;;2.58;;
70780;SDS011;59514;48.810;2.134;2023-05-10T12:22:56;4.18;;;2.00;;
70780;SDS011;59514;48.810;2.134;2023-05-10T12:25:23;5.88;;;2.85;;
70780;SDS011;59514;48.810;2.134;2023-05-10T12:27:55;6.33;;;2.13;;
70780;SDS011;59514;48.810;2.134;2023-05-10T12:30:22;5.63;;;2.08;;
70780;SDS011;59514;48.810;2.134;2023-05-10T12:32:52;5.57;;;1.98;;
70780;SDS011;59514;48.810;2.134;2023-05-10T12:35:18;4.35;;;2.47;;
70780;SDS011;59514;48.810;2.134;2023-05-10T12:37:49;4.47;;;2.17;;
70780;SDS011;59514;48.810;2.134;2023-05-10T12:40:15;5.53;;;2.70;;
70780;SDS011;59514;48.810;2.134;2023-05-10T12:42:41;3.70;;;2.03;;
70780;SDS011;59514;48.810;2.134;2023-05-10T12:45:06;3.40;;;1.80;;
70780;SDS011;59514;48.810;2.134;2023-05-10T12:47:33;6.35;;;2.10;;
70780;SDS011;59514;48.810;2.134;2023-05-10T12:49:59;6.07;;;2.30;;
70780;SDS011;59514;48.810;2.134;2023-05-10T12:52:25;4.28;;;2.28;;
70780;SDS011;59514;48.810;2.134;2023-05-10T12:54:51;3.80;;;2.25;;
70780;SDS011;59514;48.810;2.134;2023-05-10T12:57:17;5.55;;;2.97;;
70780;SDS011;59514;48.810;2.134;2023-05-10T12:59:43;3.38;;;2.13;;
70780;SDS011;59514;48.810;2.134;2023-05-10T13:02:09;5.95;;;2.38;;
70780;SDS011;59514;48.810;2.134;2023-05-10T13:04:34;4.03;;;2.65;;
70780;SDS011;59514;48.810;2.134;2023-05-10T13:07:04;3.58;;;2.38;;
70780;SDS011;59514;48.810;2.134;2023-05-10T13:09:29;3.70;;;2.15;;
70780;SDS011;59514;48.810;2.134;2023-05-10T13:11:55;5.87;;;2.60;;
70780;SDS011;59514;48.810;2.134;2023-05-10T13:14:20;3.90;;;2.45;;
70780;SDS011;59514;48.810;2.134;2023-05-10T13:16:46;5.43;;;2.40;;
70780;SDS011;59514;48.810;2.134;2023-05-10T13:19:12;4.57;;;2.40;;
70780;SDS011;59514;48.810;2.134;2023-05-10T13:21:38;4.95;;;2.10;;
70780;SDS011;59514;48.810;2.134;2023-05-10T13:24:05;3.90;;;2.42;;
70780;SDS011;59514;48.810;2.134;2023-05-10T13:26:31;4.68;;;2.13;;
70780;SDS011;59514;48.810;2.134;2023-05-10T13:28:56;5.05;;;2.42;;
70780;SDS011;59514;48.810;2.134;2023-05-10T13:31:21;3.63;;;2.13;;
70780;SDS011;59514;48.810;2.134;2023-05-10T13:33:47;4.30;;;2.10;;
70780;SDS011;59514;48.810;2.134;2023-05-10T13:36:12;5.25;;;2.33;;
70780;SDS011;59514;48.810;2.134;2023-05-10T13:38:37;5.05;;;2.10;;
70780;SDS011;59514;48.810;2.134;2023-05-10T13:41:03;3.27;;;2.40;;
70780;SDS011;59514;48.810;2.134;2023-05-10T13:43:29;3.80;;;2.28;;
70780;SDS011;59514;48.810;2.134;2023-05-10T13:45:54;5.50;;;2.22;;
70780;SDS011;59514;48.810;2.134;2023-05-10T13:48:20;4.60;;;2.35;;
70780;SDS011;59514;48.810;2.134;2023-05-10T13:50:46;4.78;;;2.28;;
70780;SDS011;59514;48.810;2.134;2023-05-10T13:53:11;4.80;;;2.17;;
70780;SDS011;59514;48.810;2.134;2023-05-10T13:55:36;4.40;;;2.10;;
70780;SDS011;59514;48.810;2.134;2023-05-10T13:58:01;3.83;;;1.90;;
70780;SDS011;59514;48.810;2.134;2023-05-10T14:00:27;4.80;;;2.03;;
70780;SDS011;59514;48.810;2.134;2023-05-10T14:02:53;3.05;;;1.63;;
70780;SDS011;59514;48.810;2.134;2023-05-10T14:05:18;3.75;;;2.25;;
70780;SDS011;59514;48.810;2.134;2023-05-10T14:07:44;3.22;;;1.55;;
70780;SDS011;59514;48.810;2.134;2023-05-10T14:10:09;3.65;;;1.52;;
70780;SDS011;59514;48.810;2.134;2023-05-10T14:12:35;3.40;;;1.90;;
70780;SDS011;59514;48.810;2.134;2023-05-10T14:15:00;2.35;;;2.00;;
70780;SDS011;59514;48.810;2.134;2023-05-10T14:17:26;2.83;;;1.98;;
70780;SDS011;59514;48.810;2.134;2023-05-10T14:19:52;3.55;;;1.95;;
70780;SDS011;59514;48.810;2.134;2023-05-10T14:22:17;3.38;;;1.85;;
70780;SDS011;59514;48.810;2.134;2023-05-10T14:24:43;3.58;;;1.92;;
70780;SDS011;59514;48.810;2.134;2023-05-10T14:27:11;2.45;;;1.48;;
70780;SDS011;59514;48.810;2.134;2023-05-10T14:29:37;3.47;;;1.73;;
70780;SDS011;59514;48.810;2.134;2023-05-10T14:32:02;4.15;;;1.92;;
70780;SDS011;59514;48.810;2.134;2023-05-10T14:34:28;2.47;;;1.65;;
70780;SDS011;59514;48.810;2.134;2023-05-10T14:36:53;5.00;;;1.88;;
70780;SDS011;59514;48.810;2.134;2023-05-10T14:39:19;3.53;;;1.77;;
70780;SDS011;59514;48.810;2.134;2023-05-10T14:41:44;3.25;;;1.70;;
70780;SDS011;59514;48.810;2.134;2023-05-10T14:44:10;2.63;;;1.73;;
70780;SDS011;59514;48.810;2.134;2023-05-10T14:46:36;4.32;;;2.05;;
70780;SDS011;59514;48.810;2.134;2023-05-10T14:49:01;5.18;;;2.42;;
70780;SDS011;59514;48.810;2.134;2023-05-10T14:51:27;4.93;;;2.67;;
70780;SDS011;59514;48.810;2.134;2023-05-10T14:53:52;5.47;;;2.70;;
70780;SDS011;59514;48.810;2.134;2023-05-10T14:56:17;2.60;;;2.22;;
70780;SDS011;59514;48.810;2.134;2023-05-10T14:58:43;3.30;;;2.03;;
70780;SDS011;59514;48.810;2.134;2023-05-10T15:01:08;3.40;;;2.37;;
70780;SDS011;59514;48.810;2.134;2023-05-10T15:03:33;4.17;;;2.53;;
70780;SDS011;59514;48.810;2.134;2023-05-10T15:05:59;3.40;;;2.30;;
70780;SDS011;59514;48.810;2.134;2023-05-10T15:08:24;3.67;;;1.90;;
70780;SDS011;59514;48.810;2.134;2023-05-10T15:10:50;3.28;;;1.92;;
70780;SDS011;59514;48.810;2.134;2023-05-10T15:13:16;2.70;;;1.83;;
70780;SDS011;59514;48.810;2.134;2023-05-10T15:15:41;3.72;;;2.53;;
70780;SDS011;59514;48.810;2.134;2023-05-10T15:18:08;4.22;;;2.25;;
70780;SDS011;59514;48.810;2.134;2023-05-10T15:20:34;2.97;;;2.40;;
70780;SDS011;59514;48.810;2.134;2023-05-10T15:22:59;2.88;;;1.98;;
70780;SDS011;59514;48.810;2.134;2023-05-10T15:25:25;6.75;;;2.58;;
70780;SDS011;59514;48.810;2.134;2023-05-10T15:27:51;3.72;;;1.90;;
70780;SDS011;59514;48.810;2.134;2023-05-10T15:30:16;3.97;;;2.07;;
70780;SDS011;59514;48.810;2.134;2023-05-10T15:32:41;4.43;;;2.15;;
70780;SDS011;59514;48.810;2.134;2023-05-10T15:35:08;2.95;;;1.77;;
70780;SDS011;59514;48.810;2.134;2023-05-10T15:37:35;3.40;;;1.80;;
70780;SDS011;59514;48.810;2.134;2023-05-10T15:40:00;4.78;;;2.08;;
70780;SDS011;59514;48.810;2.134;2023-05-10T15:42:28;4.10;;;1.75;;
70780;SDS011;59514;48.810;2.134;2023-05-10T15:44:54;2.90;;;1.65;;
70780;SDS011;59514;48.810;2.134;2023-05-10T15:47:20;3.20;;;1.42;;
70780;SDS011;59514;48.810;2.134;2023-05-10T15:49:45;2.70;;;1.77;;
70780;SDS011;59514;48.810;2.134;2023-05-10T15:52:10;5.10;;;1.90;;
70780;SDS011;59514;48.810;2.134;2023-05-10T15:54:36;3.85;;;1.90;;
70780;SDS011;59514;48.810;2.134;2023-05-10T15:57:01;4.53;;;1.87;;
70780;SDS011;59514;48.810;2.134;2023-05-10T15:59:26;3.80;;;1.67;;
70780;SDS011;59514;48.810;2.134;2023-05-10T16:01:51;3.40;;;1.50;;
70780;SDS011;59514;48.810;2.134;2023-05-10T16:04:17;3.35;;;1.70;;
70780;SDS011;59514;48.810;2.134;2023-05-10T16:06:42;5.18;;;2.10;;
70780;SDS011;59514;48.810;2.134;2023-05-10T16:09:07;3.97;;;1.75;;
70780;SDS011;59514;48.810;2.134;2023-05-10T16:11:34;3.40;;;1.45;;
70780;SDS011;59514;48.810;2.134;2023-05-10T16:13:59;4.53;;;1.40;;
70780;SDS011;59514;48.810;2.134;2023-05-10T16:16:25;2.78;;;1.77;;
70780;SDS011;59514;48.810;2.134;2023-05-10T16:18:50;2.92;;;1.45;;
70780;SDS011;59514;48.810;2.134;2023-05-10T16:21:16;2.47;;;1.60;;
70780;SDS011;59514;48.810;2.134;2023-05-10T16:23:42;3.50;;;2.10;;
70780;SDS011;59514;48.810;2.134;2023-05-10T16:26:10;3.92;;;1.95;;
70780;SDS011;59514;48.810;2.134;2023-05-10T16:28:35;3.00;;;1.73;;
70780;SDS011;59514;48.810;2.134;2023-05-10T16:31:01;2.28;;;1.25;;
70780;SDS011;59514;48.810;2.134;2023-05-10T16:33:27;2.75;;;1.80;;
70780;SDS011;59514;48.810;2.134;2023-05-10T16:35:53;4.25;;;1.60;;
70780;SDS011;59514;48.810;2.134;2023-05-10T16:38:18;3.63;;;1.33;;
70780;SDS011;59514;48.810;2.134;2023-05-10T16:40:45;3.28;;;1.48;;
70780;SDS011;59514;48.810;2.134;2023-05-10T16:43:10;2.63;;;1.40;;
70780;SDS011;59514;48.810;2.134;2023-05-10T16:45:36;2.70;;;1.38;;
70780;SDS011;59514;48.810;2.134;2023-05-10T16:48:01;3.05;;;1.23;;
70780;SDS011;59514;48.810;2.134;2023-05-10T16:50:27;3.42;;;1.42;;
70780;SDS011;59514;48.810;2.134;2023-05-10T16:52:53;3.25;;;1.30;;
70780;SDS011;59514;48.810;2.134;2023-05-10T16:55:19;2.63;;;1.67;;
70780;SDS011;59514;48.810;2.134;2023-05-10T16:57:44;2.97;;;1.30;;
70780;SDS011;59514;48.810;2.134;2023-05-10T17:00:10;3.03;;;1.25;;
70780;SDS011;59514;48.810;2.134;2023-05-10T17:02:36;3.58;;;1.10;;
70780;SDS011;59514;48.810;2.134;2023-05-10T17:05:01;2.38;;;1.00;;
70780;SDS011;59514;48.810;2.134;2023-05-10T17:07:27;1.15;;;0.68;;
70780;SDS011;59514;48.810;2.134;2023-05-10T17:09:53;2.10;;;1.00;;
70780;SDS011;59514;48.810;2.134;2023-05-10T17:12:18;2.53;;;0.98;;
70780;SDS011;59514;48.810;2.134;2023-05-10T17:14:44;3.42;;;1.00;;
70780;SDS011;59514;48.810;2.134;2023-05-10T17:17:09;3.25;;;1.10;;
70780;SDS011;59514;48.810;2.134;2023-05-10T17:19:35;1.88;;;0.80;;
70780;SDS011;59514;48.810;2.134;2023-05-10T17:22:00;6.15;;;1.50;;
70780;SDS011;59514;48.810;2.134;2023-05-10T17:24:26;2.05;;;1.00;;
70780;SDS011;59514;48.810;2.134;2023-05-10T17:26:53;2.33;;;1.00;;
70780;SDS011;59514;48.810;2.134;2023-05-10T17:29:19;1.08;;;0.70;;
70780;SDS011;59514;48.810;2.134;2023-05-10T17:31:45;2.08;;;1.13;;
70780;SDS011;59514;48.810;2.134;2023-05-10T17:34:10;1.98;;;1.15;;
70780;SDS011;59514;48.810;2.134;2023-05-10T17:36:35;3.20;;;1.45;;
70780;SDS011;59514;48.810;2.134;2023-05-10T17:39:01;3.90;;;1.20;;
70780;SDS011;59514;48.810;2.134;2023-05-10T17:41:26;1.33;;;0.88;;
70780;SDS011;59514;48.810;2.134;2023-05-10T17:43:52;1.30;;;0.88;;
70780;SDS011;59514;48.810;2.134;2023-05-10T17:46:17;1.67;;;0.80;;
70780;SDS011;59514;48.810;2.134;2023-05-10T17:48:43;2.53;;;1.25;;
70780;SDS011;59514;48.810;2.134;2023-05-10T17:51:08;1.85;;;0.80;;
70780;SDS011;59514;48.810;2.134;2023-05-10T17:53:35;1.67;;;0.80;;
70780;SDS011;59514;48.810;2.134;2023-05-10T17:56:01;2.28;;;0.88;;
70780;SDS011;59514;48.810;2.134;2023-05-10T17:58:26;1.98;;;1.00;;
70780;SDS011;59514;48.810;2.134;2023-05-10T18:00:52;1.85;;;0.90;;
70780;SDS011;59514;48.810;2.134;2023-05-10T18:03:18;2.42;;;1.00;;
70780;SDS011;59514;48.810;2.134;2023-05-10T18:05:43;2.63;;;1.00;;
70780;SDS011;59514;48.810;2.134;2023-05-10T18:08:09;2.30;;;1.05;;
70780;SDS011;59514;48.810;2.134;2023-05-10T18:10:35;2.10;;;1.27;;
70780;SDS011;59514;48.810;2.134;2023-05-10T18:13:01;2.50;;;1.23;;
70780;SDS011;59514;48.810;2.134;2023-05-10T18:15:28;1.38;;;0.82;;
70780;SDS011;59514;48.810;2.134;2023-05-10T18:17:55;2.40;;;1.00;;
70780;SDS011;59514;48.810;2.134;2023-05-10T18:20:20;2.55;;;1.10;;
70780;SDS011;59514;48.810;2.134;2023-05-10T18:22:46;3.00;;;1.25;;
70780;SDS011;59514;48.810;2.134;2023-05-10T18:25:11;0.98;;;0.85;;
70780;SDS011;59514;48.810;2.134;2023-05-10T18:27:37;1.60;;;1.00;;
70780;SDS011;59514;48.810;2.134;2023-05-10T18:30:02;2.28;;;0.90;;
70780;SDS011;59514;48.810;2.134;2023-05-10T18:32:28;4.38;;;1.30;;
70780;SDS011;59514;48.810;2.134;2023-05-10T18:34:54;0.90;;;0.70;;
70780;SDS011;59514;48.810;2.134;2023-05-10T18:37:20;3.40;;;1.00;;
70780;SDS011;59514;48.810;2.134;2023-05-10T18:39:45;1.05;;;0.80;;
70780;SDS011;59514;48.810;2.134;2023-05-10T18:42:11;2.72;;;1.17;;
70780;SDS011;59514;48.810;2.134;2023-05-10T18:44:36;3.08;;;1.23;;
70780;SDS011;59514;48.810;2.134;2023-05-10T18:47:01;2.17;;;0.82;;
70780;SDS011;59514;48.810;2.134;2023-05-10T18:49:27;2.30;;;0.77;;
70780;SDS011;59514;48.810;2.134;2023-05-10T18:51:53;2.28;;;0.98;;
70780;SDS011;59514;48.810;2.134;2023-05-10T18:54:18;2.53;;;1.20;;
70780;SDS011;59514;48.810;2.134;2023-05-10T18:56:44;1.88;;;0.80;;
70780;SDS011;59514;48.810;2.134;2023-05-10T18:59:09;2.55;;;1.20;;
70780;SDS011;59514;48.810;2.134;2023-05-10T19:01:36;2.15;;;1.42;;
70780;SDS011;59514;48.810;2.134;2023-05-10T19:04:01;1.58;;;1.02;;
70780;SDS011;59514;48.810;2.134;2023-05-10T19:06:26;3.35;;;1.05;;
70780;SDS011;59514;48.810;2.134;2023-05-10T19:08:52;3.33;;;0.90;;
70780;SDS011;59514;48.810;2.134;2023-05-10T19:11:17;2.35;;;0.85;;
70780;SDS011;59514;48.810;2.134;2023-05-10T19:13:44;2.25;;;0.90;;
70780;SDS011;59514;48.810;2.134;2023-05-10T19:16:13;3.15;;;0.93;;
70780;SDS011;59514;48.810;2.134;2023-05-10T19:18:40;1.42;;;0.90;;
70780;SDS011;59514;48.810;2.134;2023-05-10T19:21:06;2.90;;;0.93;;
70780;SDS011;59514;48.810;2.134;2023-05-10T19:23:32;0.93;;;0.75;;
70780;SDS011;59514;48.810;2.134;2023-05-10T19:25:58;1.67;;;0.90;;
70780;SDS011;59514;48.810;2.134;2023-05-10T19:28:24;3.13;;;1.60;;
70780;SDS011;59514;48.810;2.134;2023-05-10T19:30:50;2.00;;;0.80;;
70780;SDS011;59514;48.810;2.134;2023-05-10T19:33:16;2.78;;;1.10;;
70780;SDS011;59514;48.810;2.134;2023-05-10T19:35:42;4.15;;;1.55;;
70780;SDS011;59514;48.810;2.134;2023-05-10T19:38:07;3.78;;;1.33;;
70780;SDS011;59514;48.810;2.134;2023-05-10T19:40:32;4.57;;;2.10;;
70780;SDS011;59514;48.810;2.134;2023-05-10T19:42:58;2.70;;;1.25;;
70780;SDS011;59514;48.810;2.134;2023-05-10T19:45:24;2.92;;;1.40;;
70780;SDS011;59514;48.810;2.134;2023-05-10T19:47:50;2.17;;;1.20;;
70780;SDS011;59514;48.810;2.134;2023-05-10T19:50:16;6.43;;;1.58;;
70780;SDS011;59514;48.810;2.134;2023-05-10T19:52:41;1.45;;;1.10;;
70780;SDS011;59514;48.810;2.134;2023-05-10T19:55:07;3.30;;;1.20;;
70780;SDS011;59514;48.810;2.134;2023-05-10T19:57:33;3.33;;;1.08;;
70780;SDS011;59514;48.810;2.134;2023-05-10T19:59:58;2.53;;;1.13;;
70780;SDS011;59514;48.810;2.134;2023-05-10T20:02:23;3.70;;;1.27;;
70780;SDS011;59514;48.810;2.134;2023-05-10T20:04:49;3.30;;;0.95;;
70780;SDS011;59514;48.810;2.134;2023-05-10T20:07:15;3.13;;;1.23;;
70780;SDS011;59514;48.810;2.134;2023-05-10T20:09:41;1.10;;;1.00;;
70780;SDS011;59514;48.810;2.134;2023-05-10T20:12:07;3.05;;;1.40;;
70780;SDS011;59514;48.810;2.134;2023-05-10T20:14:33;3.88;;;1.45;;
70780;SDS011;59514;48.810;2.134;2023-05-10T20:16:58;1.48;;;0.98;;
70780;SDS011;59514;48.810;2.134;2023-05-10T20:19:23;3.20;;;1.30;;
70780;SDS011;59514;48.810;2.134;2023-05-10T20:21:49;2.53;;;1.00;;
70780;SDS011;59514;48.810;2.134;2023-05-10T20:24:14;2.05;;;0.90;;
70780;SDS011;59514;48.810;2.134;2023-05-10T20:26:40;2.55;;;0.93;;
70780;SDS011;59514;48.810;2.134;2023-05-10T20:29:05;2.25;;;1.10;;
70780;SDS011;59514;48.810;2.134;2023-05-10T20:31:30;2.63;;;1.27;;
70780;SDS011;59514;48.810;2.134;2023-05-10T20:33:56;3.20;;;2.25;;
70780;SDS011;59514;48.810;2.134;2023-05-10T20:36:21;2.25;;;1.50;;
70780;SDS011;59514;48.810;2.134;2023-05-10T20:38:46;2.50;;;1.40;;
70780;SDS011;59514;48.810;2.134;2023-05-10T20:41:12;2.60;;;1.17;;
70780;SDS011;59514;48.810;2.134;2023-05-10T20:43:37;5.95;;;1.15;;
70780;SDS011;59514;48.810;2.134;2023-05-10T20:46:02;2.72;;;1.23;;
70780;SDS011;59514;48.810;2.134;2023-05-10T20:48:30;2.72;;;1.52;;
70780;SDS011;59514;48.810;2.134;2023-05-10T20:50:56;3.25;;;1.30;;
70780;SDS011;59514;48.810;2.134;2023-05-10T20:53:22;2.70;;;1.42;;
70780;SDS011;59514;48.810;2.134;2023-05-10T20:55:47;2.72;;;1.17;;
70780;SDS011;59514;48.810;2.134;2023-05-10T20:58:13;1.55;;;1.30;;
70780;SDS011;59514;48.810;2.134;2023-05-10T21:00:38;2.28;;;1.08;;
70780;SDS011;59514;48.810;2.134;2023-05-10T21:03:03;2.22;;;1.10;;
70780;SDS011;59514;48.810;2.134;2023-05-10T21:05:29;2.67;;;1.10;;
70780;SDS011;59514;48.810;2.134;2023-05-10T21:07:54;3.20;;;1.30;;
70780;SDS011;59514;48.810;2.134;2023-05-10T21:10:19;1.25;;;1.00;;
70780;SDS011;59514;48.810;2.134;2023-05-10T21:12:45;1.67;;;1.23;;
70780;SDS011;59514;48.810;2.134;2023-05-10T21:15:11;5.03;;;1.70;;
70780;SDS011;59514;48.810;2.134;2023-05-10T21:17:36;2.67;;;1.25;;
70780;SDS011;59514;48.810;2.134;2023-05-10T21:20:01;2.75;;;1.38;;
70780;SDS011;59514;48.810;2.134;2023-05-10T21:22:27;4.25;;;1.58;;
70780;SDS011;59514;48.810;2.134;2023-05-10T21:24:53;3.58;;;1.60;;
70780;SDS011;59514;48.810;2.134;2023-05-10T21:27:18;2.47;;;1.25;;
70780;SDS011;59514;48.810;2.134;2023-05-10T21:29:43;4.10;;;1.35;;
70780;SDS011;59514;48.810;2.134;2023-05-10T21:32:09;1.65;;;1.05;;
70780;SDS011;59514;48.810;2.134;2023-05-10T21:34:35;2.10;;;1.35;;
70780;SDS011;59514;48.810;2.134;2023-05-10T21:37:00;1.30;;;0.93;;
70780;SDS011;59514;48.810;2.134;2023-05-10T21:39:25;2.05;;;1.10;;
70780;SDS011;59514;48.810;2.134;2023-05-10T21:41:51;1.98;;;1.35;;
70780;SDS011;59514;48.810;2.134;2023-05-10T21:44:16;2.65;;;1.33;;
70780;SDS011;59514;48.810;2.134;2023-05-10T21:46:41;1.88;;;1.20;;
70780;SDS011;59514;48.810;2.134;2023-05-10T21:49:08;2.22;;;1.30;;
70780;SDS011;59514;48.810;2.134;2023-05-10T21:51:34;2.30;;;1.27;;
70780;SDS011;59514;48.810;2.134;2023-05-10T21:53:59;3.90;;;1.45;;
70780;SDS011;59514;48.810;2.134;2023-05-10T21:56:25;2.42;;;1.10;;
70780;SDS011;59514;48.810;2.134;2023-05-10T21:58:50;3.03;;;1.40;;
70780;SDS011;59514;48.810;2.134;2023-05-10T22:01:16;3.28;;;1.50;;
70780;SDS011;59514;48.810;2.134;2023-05-10T22:03:42;2.67;;;1.25;;
70780;SDS011;59514;48.810;2.134;2023-05-10T22:06:07;3.10;;;1.10;;
70780;SDS011;59514;48.810;2.134;2023-05-10T22:08:33;2.85;;;1.48;;
70780;SDS011;59514;48.810;2.134;2023-05-10T22:10:58;1.67;;;1.30;;
70780;SDS011;59514;48.810;2.134;2023-05-10T22:13:23;2.63;;;0.90;;
70780;SDS011;59514;48.810;2.134;2023-05-10T22:15:49;3.78;;;2.47;;
70780;SDS011;59514;48.810;2.134;2023-05-10T22:18:15;5.28;;;4.68;;
70780;SDS011;59514;48.810;2.134;2023-05-10T22:20:43;2.40;;;1.80;;
70780;SDS011;59514;48.810;2.134;2023-05-10T22:23:09;2.70;;;1.65;;
70780;SDS011;59514;48.810;2.134;2023-05-10T22:25:34;2.28;;;1.52;;
70780;SDS011;59514;48.810;2.134;2023-05-10T22:27:59;2.97;;;1.55;;
70780;SDS011;59514;48.810;2.134;2023-05-10T22:30:25;3.55;;;1.58;;
70780;SDS011;59514;48.810;2.134;2023-05-10T22:32:51;3.45;;;1.20;;
70780;SDS011;59514;48.810;2.134;2023-05-10T22:35:16;3.28;;;1.50;;
70780;SDS011;59514;48.810;2.134;2023-05-10T22:37:42;1.67;;;1.10;;
70780;SDS011;59514;48.810;2.134;2023-05-10T22:40:07;3.95;;;1.50;;
70780;SDS011;59514;48.810;2.134;2023-05-10T22:42:33;3.08;;;1.40;;
70780;SDS011;59514;48.810;2.134;2023-05-10T22:44:58;3.58;;;1.15;;
70780;SDS011;59514;48.810;2.134;2023-05-10T22:47:24;1.55;;;1.20;;
70780;SDS011;59514;48.810;2.134;2023-05-10T22:49:49;1.77;;;1.23;;
70780;SDS011;59514;48.810;2.134;2023-05-10T22:52:15;4.47;;;1.52;;
70780;SDS011;59514;48.810;2.134;2023-05-10T22:54:40;1.70;;;1.10;;
70780;SDS011;59514;48.810;2.134;2023-05-10T22:57:05;3.58;;;1.50;;
70780;SDS011;59514;48.810;2.134;2023-05-10T22:59:31;3.90;;;1.17;;
70780;SDS011;59514;48.810;2.134;2023-05-10T23:01:56;3.03;;;1.75;;
70780;SDS011;59514;48.810;2.134;2023-05-10T23:04:22;2.05;;;1.10;;
70780;SDS011;59514;48.810;2.134;2023-05-10T23:06:47;2.47;;;1.65;;
70780;SDS011;59514;48.810;2.134;2023-05-10T23:09:12;2.67;;;1.50;;
70780;SDS011;59514;48.810;2.134;2023-05-10T23:11:37;5.45;;;1.60;;
70780;SDS011;59514;48.810;2.134;2023-05-10T23:14:03;1.60;;;0.95;;
70780;SDS011;59514;48.810;2.134;2023-05-10T23:16:28;2.35;;;1.30;;
70780;SDS011;59514;48.810;2.134;2023-05-10T23:18:54;2.85;;;1.33;;
70780;SDS011;59514;48.810;2.134;2023-05-10T23:21:20;2.28;;;1.25;;
70780;SDS011;59514;48.810;2.134;2023-05-10T23:23:45;2.70;;;1.30;;
70780;SDS011;59514;48.810;2.134;2023-05-10T23:26:10;2.20;;;1.20;;
70780;SDS011;59514;48.810;2.134;2023-05-10T23:28:36;1.70;;;1.13;;
70780;SDS011;59514;48.810;2.134;2023-05-10T23:31:01;3.70;;;1.45;;
70780;SDS011;59514;48.810;2.134;2023-05-10T23:33:27;3.47;;;1.58;;
70780;SDS011;59514;48.810;2.134;2023-05-10T23:35:52;2.85;;;1.10;;
70780;SDS011;59514;48.810;2.134;2023-05-10T23:38:19;2.28;;;1.40;;
70780;SDS011;59514;48.810;2.134;2023-05-10T23:40:47;6.25;;;1.60;;
70780;SDS011;59514;48.810;2.134;2023-05-10T23:43:13;2.58;;;1.35;;
70780;SDS011;59514;48.810;2.134;2023-05-10T23:45:40;3.28;;;1.58;;
70780;SDS011;59514;48.810;2.134;2023-05-10T23:48:05;3.67;;;1.45;;
70780;SDS011;59514;48.810;2.134;2023-05-10T23:50:31;2.33;;;1.50;;
70780;SDS011;59514;48.810;2.134;2023-05-10T23:52:56;2.95;;;1.15;;
70780;SDS011;59514;48.810;2.134;2023-05-10T23:55:21;3.03;;;1.30;;
70780;SDS011;59514;48.810;2.134;2023-05-10T23:57:46;3.47;;;1.88;;
